weather.gov     
National Weather Service

Terminal Aerodrome Forecast
NWS Homepage
This page is being discontinued on March 12, 2014.
The same data is available at this site. Please update your bookmarks.
Thank you, and we apologize for the inconvenience.
Please send an email to SR-SRH.Webmaster@noaa.gov with any concerns.


Current Version
Previous Version:    01  02  03  04  05  06  07  08  09  10  11  12  13  14  15  16  17  18  19  20  21  22  23  24  25  26  27  28  29  30  
   31  32  33  34  35  36  37  38  39  40  41  42  43  44  45  46  47  48  49  50  51  52  53  54  55  
[Printable]
287
FTUS41 KRLX 211100
TAFHTS
TAF
KHTS 211131Z 2112/2212 20007KT P6SM SKC
     FM211300 22007KT 6SM BR BKN035
     FM211500 23009G19KT P6SM VCTS BKN025CB
     FM211700 24012G23KT P6SM TSRA BKN025CB
     FM211800 25012G24KT P6SM VCTS BKN025CB
     FM212100 26010G19KT P6SM VCTS BKN035CB
     FM212300 30011G17KT P6SM SCT040
     FM220200 31007KT P6SM SCT040
     FM220500 32005KT 6SM BR SCT040
     FM220700 32004KT 5SM BR BKN025
     FM221000 32004KT 5SM BR BKN015=


U.S. Dept. of Commerce
NOAA National Weather Service
1325 East West Highway
Silver Spring, MD 20910
E-mail: w-nws.webmaster@noaa.gov
Page last modified: May 16, 2007
NATIONAL WEATHER SERVICE: for Safety, for Work, for Fun - FOR LIFE